Nyborg, Denmark
Current Conditions -  °F | °C
As of 10:20 AM on Friday 24 Oct 2014 (Local Time) from EKOD Reporting Station
Drizzle Drizzle  
Wind Chill: 50°   Ceiling: 1100
Heat Index: 50°   Visibility: 3mi
Dew Point: 50°   Wind: 13mph
Humidity: 100%   Direction: 190°S
Pressure: 30.06"   Gusts: NA
Location:  55.31°N, 10.79°E
Report Text: EKOD 240820Z 19011KT 5000 -DZ FEW007 BKN011 10/10 Q1018
Loading
Personal Weather Stations






























Interactive Weather Map
Tropical Storm Tracking
New forecast layout! Learn more

10-Day Weather Forecast

Advertisements
Track Severe Weather on mobile